Flight Track Log - Related Links

Times and Time Zones

All times are in EDT time to prevent confusion due to time zone crossing. See the TSU361 flight status page for this flight to view local times or setup timezone preferences in your user account.

Time Position Orientation Groundspeed Altitude Reporting Facility
EDT Latitude Longitude Course Direction KTS MPH feet Rate Location/Type
Fri 02:15:49 PM 43.2894 -86.0567 72° East 203 234 7,600  Level Chicago Center
Fri 02:16:51 PM 43.3064 -85.9842 72° East 199 229 9,300 1,645 Climbing Chicago Center
Fri 02:17:53 PM 43.3250 -85.9117 71° East 200 230 11,000 871 Climbing Chicago Center
Fri 02:18:55 PM 43.3456 -85.8242 72° East 236 272 11,100  Climbing Chicago Center
Fri 02:19:57 PM 43.3050 -85.7069 115° Southeast 284 327 11,000 -97 Descending Chicago Center
Fri 02:20:59 PM 43.2650 -85.6044 118° Southeast 298 343 10,900 -48 Descending Chicago Center
Fri 02:22:01 PM 43.2306 -85.4989 114° Southeast 302 348 10,900 48 Level Chicago Center
Fri 02:23:03 PM 43.1969 -85.3903 113° Southeast 308 354 11,000 48 Climbing Chicago Center
Fri 02:24:05 PM 43.1692 -85.2808 109° East 307 353 11,000  Level Chicago Center
Fri 02:25:07 PM 43.1297 -85.1764 117° Southeast 308 354 11,000  Level Chicago Center
Fri 02:26:10 PM 43.0919 -85.0711 116° Southeast 309 356 11,000  Level Chicago Center
Fri 02:27:12 PM 43.0419 -84.9467 119° Southeast 313 360 11,000  Level Chicago Center
Fri 02:28:14 PM 42.9983 -84.8450 120° Southeast 310 357 11,000 -242 Level Chicago Center
Fri 02:29:16 PM 42.9606 -84.7381 116° Southeast 313 360 10,500 -532 Descending Chicago Center
Fri 02:30:18 PM 42.9217 -84.6258 115° Southeast 326 375 9,900 -242 Descending Chicago Center
Fri 02:31:20 PM 42.8825 -84.5164 116° Southeast 324 373 10,000 48 Climbing Chicago Center
Fri 02:32:22 PM 42.8453 -84.4094 115° Southeast 317 365 10,000 48 Level Chicago Center
Fri 02:33:24 PM 42.8053 -84.2817 113° Southeast 308 354 10,100 -339 Climbing Chicago Center
Fri 02:34:26 PM 42.7731 -84.1739 112° Southeast 307 353 9,300 -1,237 Descending Chicago Center
Fri 02:35:01 PM 42.7481 -84.1064 117° Southeast 323 372 8,100 -1,563 Descending Cleveland Center
Fri 02:36:02 PM 42.7056 -83.9994 118° Southeast 309 356 6,800 -1,345 Descending Cleveland Center
Fri 02:36:57 PM 42.6664 -83.9125 121° Southeast 314 361 5,500 -931 Descending Cleveland Center
Fri 02:37:58 PM 42.6758 -83.7972 84° East 289 333 5,000 -738 Descending Cleveland Center
Fri 02:38:59 PM 42.6892 -83.6961 80° East 279 321 4,000 -703 Descending Cleveland Center
Fri 02:40:06 PM 42.7086 -83.5897 76° East 253 291 3,500 -443 Descending Cleveland Center
Fri 02:41:01 PM 42.7297 -83.5003 72° East 264 304 3,100 -261 Descending Cleveland Center
Fri 02:42:01 PM 42.7319 -83.4128 88° East 216 249 3,000 -49 Descending Cleveland Center
Fri 02:43:03 PM 42.7061 -83.3550 121° Southeast 198 228 3,000 -488 Level Cleveland Center
Fri 02:44:04 PM 42.6642 -83.3644 189° South 137 158 2,000 -984 Descending Cleveland Center
Fri 02:46:00 PM 42.6500 -83.4167 224° Southwest  Level FlightAware Approximate
Fri 02:53:00 PM 42.6656 -83.4205 224° Southwest  Level Estimated

Login

Don't have an account? Register now (free) for customized features, flight alerts, and more!